createdAt,value
2023-05-12T00:01:59.241Z,2.90
2023-05-12T00:04:27.340Z,3.20
2023-05-12T00:06:55.258Z,3.13
2023-05-12T00:09:23.163Z,2.95
2023-05-12T00:11:51.208Z,2.65
2023-05-12T00:14:19.706Z,2.28
2023-05-12T00:16:52.004Z,2.47
2023-05-12T00:19:21.266Z,2.92
2023-05-12T00:21:49.203Z,2.65
2023-05-12T00:24:17.155Z,3.00
2023-05-12T00:26:45.010Z,2.88
2023-05-12T00:29:13.884Z,2.60
2023-05-12T00:31:41.812Z,2.95
2023-05-12T00:34:12.689Z,3.47
2023-05-12T00:36:41.115Z,3.45
2023-05-12T00:39:09.071Z,2.92
2023-05-12T00:41:37.243Z,2.55
2023-05-12T00:44:05.702Z,3.17
2023-05-12T00:46:34.721Z,3.45
2023-05-12T00:49:03.024Z,2.95
2023-05-12T00:51:31.167Z,3.25
2023-05-12T00:53:59.717Z,3.00
2023-05-12T00:56:28.004Z,3.90
2023-05-12T00:58:56.480Z,3.60
2023-05-12T01:01:24.741Z,4.25
2023-05-12T01:03:55.712Z,3.03
2023-05-12T01:06:30.205Z,2.88
2023-05-12T01:08:59.081Z,3.40
2023-05-12T01:11:27.337Z,2.72
2023-05-12T01:13:55.451Z,3.45
2023-05-12T01:16:25.736Z,3.67
2023-05-12T01:18:56.232Z,3.38
2023-05-12T01:21:24.477Z,3.35
2023-05-12T01:24:06.105Z,2.92
2023-05-12T01:26:34.328Z,3.38
2023-05-12T01:29:04.090Z,3.47
2023-05-12T01:31:32.428Z,3.17
2023-05-12T01:34:00.416Z,3.40
2023-05-12T01:36:28.699Z,3.13
2023-05-12T01:38:56.873Z,3.50
2023-05-12T01:41:24.855Z,3.90
2023-05-12T01:43:52.961Z,4.10
2023-05-12T01:46:21.326Z,3.53
2023-05-12T01:48:50.683Z,3.20
2023-05-12T01:51:18.845Z,3.63
2023-05-12T01:53:46.953Z,3.45
2023-05-12T01:56:15.115Z,3.80
2023-05-12T01:58:43.056Z,3.03
2023-05-12T02:01:10.893Z,3.40
2023-05-12T02:03:39.116Z,3.33
2023-05-12T02:06:12.539Z,3.15
2023-05-12T02:08:41.201Z,3.10
2023-05-12T02:11:09.959Z,3.20
2023-05-12T02:13:39.341Z,3.00
2023-05-12T02:16:07.984Z,2.92
2023-05-12T02:18:35.941Z,3.80
2023-05-12T02:21:07.625Z,3.63
2023-05-12T02:23:36.237Z,3.33
2023-05-12T02:26:04.578Z,3.63
2023-05-12T02:28:32.919Z,3.85
2023-05-12T02:31:01.035Z,3.13
2023-05-12T02:33:31.201Z,3.22
2023-05-12T02:35:59.514Z,3.38
2023-05-12T02:38:27.780Z,3.55
2023-05-12T02:40:55.954Z,3.33
2023-05-12T02:43:24.562Z,2.85
2023-05-12T02:45:53.456Z,3.10
2023-05-12T02:48:21.958Z,3.05
2023-05-12T02:50:49.953Z,3.00
2023-05-12T02:53:18.004Z,3.53
2023-05-12T02:55:46.210Z,2.92
2023-05-12T02:58:14.154Z,3.33
2023-05-12T03:00:42.185Z,3.15
2023-05-12T03:03:10.455Z,3.10
2023-05-12T03:05:38.628Z,2.90
2023-05-12T03:08:06.901Z,3.50
2023-05-12T03:10:35.766Z,2.80
2023-05-12T03:13:29.339Z,3.13
2023-05-12T03:16:01.693Z,3.50
2023-05-12T03:18:31.128Z,3.45
2023-05-12T03:20:59.179Z,3.83
2023-05-12T03:23:26.943Z,4.03
2023-05-12T03:25:56.752Z,3.90
2023-05-12T03:28:25.096Z,3.70
2023-05-12T03:30:54.190Z,3.50
2023-05-12T03:33:22.301Z,3.85
2023-05-12T03:35:51.513Z,3.22
2023-05-12T03:38:19.442Z,4.10
2023-05-12T03:40:52.885Z,3.78
2023-05-12T03:43:22.104Z,3.90
2023-05-12T03:45:50.236Z,3.40
2023-05-12T03:48:18.437Z,3.30
2023-05-12T03:50:46.727Z,3.40
2023-05-12T03:53:14.867Z,3.40
2023-05-12T03:55:42.981Z,3.10
2023-05-12T03:58:11.321Z,2.92
2023-05-12T04:00:40.201Z,3.60
2023-05-12T04:03:14.661Z,3.30
2023-05-12T04:05:43.008Z,3.38
2023-05-12T04:08:10.933Z,3.53
2023-05-12T04:10:42.490Z,4.10
2023-05-12T04:15:38.286Z,3.60
2023-05-12T04:18:06.141Z,4.03
2023-05-12T04:20:35.841Z,3.65
2023-05-12T04:23:04.177Z,3.70
2023-05-12T04:25:32.462Z,3.35
2023-05-12T04:28:00.752Z,3.35
2023-05-12T04:30:29.097Z,3.28
2023-05-12T04:32:57.104Z,3.60
2023-05-12T04:35:25.588Z,3.85
2023-05-12T04:37:53.631Z,3.80
2023-05-12T04:40:21.929Z,3.63
2023-05-12T04:42:51.587Z,3.03
2023-05-12T04:45:20.207Z,3.10
2023-05-12T04:47:48.613Z,3.13
2023-05-12T04:50:17.006Z,3.00
2023-05-12T04:52:45.307Z,2.90
2023-05-12T04:55:14.105Z,2.88
2023-05-12T04:57:42.328Z,3.28
2023-05-12T05:00:12.935Z,3.90
2023-05-12T05:02:41.748Z,3.35
2023-05-12T05:05:13.637Z,3.40
2023-05-12T05:07:41.788Z,3.10
2023-05-12T05:10:10.070Z,3.33
2023-05-12T05:12:40.840Z,2.75
2023-05-12T05:15:11.803Z,3.25
2023-05-12T05:17:40.493Z,3.63
2023-05-12T05:20:12.710Z,2.92
2023-05-12T05:22:43.269Z,3.13
2023-05-12T05:25:12.479Z,3.38
2023-05-12T05:27:40.696Z,3.63
2023-05-12T05:30:09.596Z,3.15
2023-05-12T05:32:40.589Z,3.70
2023-05-12T05:35:09.347Z,3.38
2023-05-12T05:37:41.919Z,4.45
2023-05-12T05:40:10.409Z,4.55
2023-05-12T05:42:38.332Z,3.85
2023-05-12T05:45:06.923Z,3.85
2023-05-12T05:47:36.279Z,4.45
2023-05-12T05:50:05.849Z,4.72
2023-05-12T05:52:36.701Z,4.47
2023-05-12T05:55:05.169Z,4.20
2023-05-12T05:57:33.322Z,4.15
2023-05-12T06:00:01.541Z,4.63
2023-05-12T06:02:30.002Z,4.78
2023-05-12T06:04:58.156Z,5.00
2023-05-12T06:07:27.132Z,4.80
2023-05-12T06:09:56.149Z,4.82
2023-05-12T06:12:24.176Z,4.07
2023-05-12T06:14:52.628Z,5.32
2023-05-12T06:17:22.210Z,4.50
2023-05-12T06:19:50.883Z,5.20
2023-05-12T06:22:21.756Z,4.57
2023-05-12T06:24:49.789Z,4.40
2023-05-12T06:27:17.923Z,4.25
2023-05-12T06:29:47.821Z,4.28
2023-05-12T06:32:17.149Z,4.40
2023-05-12T06:34:45.307Z,4.15
2023-05-12T06:37:13.281Z,4.40
2023-05-12T06:39:41.341Z,4.40
2023-05-12T06:42:09.430Z,4.05
2023-05-12T06:44:42.759Z,4.10
2023-05-12T06:47:10.784Z,4.25
2023-05-12T06:49:39.068Z,4.47
2023-05-12T06:52:07.694Z,4.68
2023-05-12T06:54:38.637Z,4.90
2023-05-12T06:57:06.793Z,4.32
2023-05-12T06:59:34.882Z,3.97
2023-05-12T07:02:05.884Z,3.95
2023-05-12T07:04:34.521Z,4.32
2023-05-12T07:07:04.591Z,4.65
2023-05-12T07:09:32.727Z,4.20
2023-05-12T07:12:00.971Z,4.18
2023-05-12T07:14:29.066Z,4.05
2023-05-12T07:16:57.654Z,4.07
2023-05-12T07:19:25.728Z,4.50
2023-05-12T07:21:54.211Z,4.15
2023-05-12T07:24:22.150Z,4.38
2023-05-12T07:26:50.270Z,3.83
2023-05-12T07:29:18.609Z,4.32
2023-05-12T07:31:47.179Z,3.45
2023-05-12T07:34:15.389Z,3.83
2023-05-12T07:36:43.653Z,3.63
2023-05-12T07:39:13.066Z,4.05
2023-05-12T07:41:41.379Z,4.28
2023-05-12T07:44:09.643Z,4.18
2023-05-12T07:46:37.746Z,4.13
2023-05-12T07:49:07.989Z,3.97
2023-05-12T07:51:36.349Z,3.85
2023-05-12T07:54:05.025Z,3.70
2023-05-12T07:56:33.522Z,3.53
2023-05-12T07:59:01.674Z,3.60
2023-05-12T08:01:29.861Z,4.38
2023-05-12T08:03:58.107Z,4.22
2023-05-12T08:06:26.719Z,4.20
2023-05-12T08:08:58.460Z,3.95
2023-05-12T08:11:27.232Z,3.92
2023-05-12T08:13:55.364Z,4.38
2023-05-12T08:16:23.617Z,4.25
2023-05-12T08:18:51.747Z,4.15
2023-05-12T08:21:19.780Z,3.78
2023-05-12T08:23:47.877Z,4.40
2023-05-12T08:26:16.244Z,3.83
2023-05-12T08:28:44.164Z,3.95
2023-05-12T08:31:12.386Z,4.22
2023-05-12T08:33:40.668Z,4.47
2023-05-12T08:36:09.283Z,3.45
2023-05-12T08:38:37.428Z,4.93
2023-05-12T08:41:22.227Z,4.22
2023-05-12T08:43:53.736Z,4.38
2023-05-12T08:46:22.211Z,4.15
2023-05-12T08:48:51.746Z,3.88
2023-05-12T08:51:20.551Z,3.95
2023-05-12T08:53:48.860Z,4.28
2023-05-12T08:58:50.929Z,4.22
2023-05-12T09:01:19.067Z,4.40
2023-05-12T09:03:47.252Z,4.10
2023-05-12T09:06:15.925Z,4.60
2023-05-12T09:08:44.243Z,5.25
2023-05-12T09:11:14.098Z,4.32
2023-05-12T09:14:00.810Z,4.00
2023-05-12T09:16:38.711Z,4.60
2023-05-12T09:19:08.481Z,4.75
2023-05-12T09:21:37.389Z,4.20
2023-05-12T09:24:07.488Z,3.72
2023-05-12T09:26:51.944Z,4.37
2023-05-12T09:29:29.960Z,4.47
2023-05-12T09:32:04.839Z,4.32
2023-05-12T09:34:41.365Z,4.82
2023-05-12T09:37:09.890Z,4.78
2023-05-12T09:39:37.936Z,4.43
2023-05-12T09:42:12.824Z,4.78
2023-05-12T09:44:41.837Z,4.88
2023-05-12T09:47:10.851Z,5.30
2023-05-12T09:49:39.165Z,5.18
2023-05-12T09:52:07.762Z,5.45
2023-05-12T09:54:36.741Z,5.07
2023-05-12T09:57:05.802Z,5.88
2023-05-12T09:59:36.040Z,5.80
2023-05-12T10:02:09.916Z,5.78
2023-05-12T10:04:48.591Z,4.70
2023-05-12T10:07:18.098Z,5.93
2023-05-12T10:09:46.575Z,5.20
2023-05-12T10:12:14.816Z,4.72
2023-05-12T10:14:43.727Z,4.65
2023-05-12T10:17:12.824Z,4.00
2023-05-12T10:19:42.943Z,3.92
2023-05-12T10:22:12.151Z,4.18
2023-05-12T10:24:44.634Z,4.05
2023-05-12T10:27:13.633Z,4.00
2023-05-12T10:29:41.834Z,3.70
2023-05-12T10:32:11.712Z,3.65
2023-05-12T10:34:42.379Z,3.40
2023-05-12T10:37:13.135Z,3.38
2023-05-12T10:42:26.301Z,2.88
2023-05-12T10:44:56.782Z,2.60
2023-05-12T10:47:29.590Z,2.78
2023-05-12T10:50:01.227Z,3.05
2023-05-12T10:52:29.371Z,2.72
2023-05-12T10:55:07.156Z,3.30
2023-05-12T10:57:35.498Z,2.55
2023-05-12T11:00:05.199Z,3.17
2023-05-12T11:02:36.383Z,2.83
2023-05-12T11:05:13.424Z,2.58
2023-05-12T11:10:15.625Z,2.63
2023-05-12T11:12:45.324Z,2.55
2023-05-12T11:15:14.664Z,2.90
2023-05-12T11:17:43.612Z,2.13
2023-05-12T11:20:21.995Z,2.70
2023-05-12T11:22:50.558Z,1.98
2023-05-12T11:25:19.251Z,2.20
2023-05-12T11:27:51.383Z,2.00
2023-05-12T11:30:20.122Z,2.28
2023-05-12T11:32:48.949Z,2.42
2023-05-12T11:35:18.944Z,2.00
2023-05-12T11:37:47.781Z,2.10
2023-05-12T11:40:16.744Z,2.10
2023-05-12T11:42:48.020Z,2.20
2023-05-12T11:45:30.265Z,2.22
2023-05-12T11:48:14.335Z,1.92
2023-05-12T11:50:44.915Z,1.80
2023-05-12T11:53:15.315Z,1.67
2023-05-12T11:55:54.631Z,1.95
2023-05-12T11:58:27.048Z,2.00
2023-05-12T12:00:55.742Z,2.00
2023-05-12T12:03:24.504Z,2.13
2023-05-12T12:06:01.527Z,2.20
2023-05-12T12:08:29.953Z,2.00
2023-05-12T12:10:57.834Z,1.92
2023-05-12T12:13:26.702Z,1.63
2023-05-12T12:15:54.734Z,2.13
2023-05-12T12:18:23.041Z,2.10
2023-05-12T12:20:51.165Z,2.13
2023-05-12T12:23:19.339Z,2.42
2023-05-12T12:25:47.653Z,2.25
2023-05-12T12:28:15.836Z,1.95
2023-05-12T12:30:43.839Z,2.35
2023-05-12T12:33:12.244Z,2.10
2023-05-12T12:35:40.272Z,1.80
2023-05-12T12:38:09.125Z,2.08
2023-05-12T12:40:37.721Z,2.60
2023-05-12T12:43:06.015Z,2.28
2023-05-12T12:45:36.800Z,2.38
2023-05-12T12:48:06.873Z,2.30
2023-05-12T12:50:36.469Z,2.53
2023-05-12T12:53:04.639Z,2.30
2023-05-12T12:55:32.705Z,2.10
2023-05-12T12:58:00.827Z,2.20
2023-05-12T13:00:29.206Z,2.03
2023-05-12T13:02:57.411Z,1.77
2023-05-12T13:05:25.845Z,2.00
2023-05-12T13:07:53.810Z,2.28
2023-05-12T13:10:21.721Z,2.40
2023-05-12T13:12:50.038Z,2.35
2023-05-12T13:15:19.615Z,2.30
2023-05-12T13:17:51.026Z,2.33
2023-05-12T13:20:19.453Z,2.00
2023-05-12T13:22:47.939Z,2.33
2023-05-12T13:25:15.923Z,2.20
2023-05-12T13:27:44.144Z,2.05
2023-05-12T13:30:14.380Z,2.38
2023-05-12T13:32:42.850Z,1.55
2023-05-12T13:35:11.050Z,2.33
2023-05-12T13:37:39.245Z,2.05
2023-05-12T13:40:08.227Z,2.28
2023-05-12T13:42:36.842Z,2.45
2023-05-12T13:45:09.430Z,2.05
2023-05-12T13:47:38.482Z,2.53
2023-05-12T13:50:08.050Z,2.00
2023-05-12T13:52:36.177Z,1.90
2023-05-12T13:55:04.311Z,1.80
2023-05-12T13:57:32.457Z,2.10
2023-05-12T14:00:01.087Z,2.30
2023-05-12T14:02:29.111Z,2.05
2023-05-12T14:04:57.546Z,1.85
2023-05-12T14:07:25.746Z,2.25
2023-05-12T14:09:53.995Z,1.90
2023-05-12T14:12:21.944Z,2.28
2023-05-12T14:14:50.879Z,2.42
2023-05-12T14:17:19.348Z,2.13
2023-05-12T14:19:48.023Z,1.90
2023-05-12T14:22:25.581Z,1.98
2023-05-12T14:24:56.001Z,1.90
2023-05-12T14:27:24.149Z,2.60
2023-05-12T14:29:52.396Z,1.95
2023-05-12T14:32:20.578Z,2.15
2023-05-12T14:34:48.685Z,2.20
2023-05-12T14:37:16.838Z,2.30
2023-05-12T14:39:44.983Z,2.25
2023-05-12T14:42:12.874Z,2.10
2023-05-12T14:44:40.852Z,1.90
2023-05-12T14:47:09.297Z,2.08
2023-05-12T14:49:37.824Z,1.98
2023-05-12T14:52:06.883Z,2.05
2023-05-12T14:54:35.578Z,2.10
2023-05-12T14:57:04.514Z,1.98
2023-05-12T14:59:32.631Z,1.80
2023-05-12T15:02:00.910Z,2.08
2023-05-12T15:04:29.013Z,2.00
2023-05-12T15:06:57.234Z,2.28
2023-05-12T15:09:25.560Z,2.08
2023-05-12T15:11:53.765Z,2.05
2023-05-12T15:14:21.928Z,2.00
2023-05-12T15:16:50.269Z,2.00
2023-05-12T15:19:20.800Z,1.95
2023-05-12T15:21:49.086Z,2.20
2023-05-12T15:24:17.331Z,2.00
2023-05-12T15:26:45.256Z,1.83
2023-05-12T15:29:15.681Z,1.90
2023-05-12T15:31:43.815Z,2.60
2023-05-12T15:34:11.922Z,2.30
2023-05-12T15:36:41.819Z,2.40
2023-05-12T15:39:09.677Z,2.00
2023-05-12T15:41:37.750Z,1.90
2023-05-12T15:44:06.623Z,1.95
2023-05-12T15:46:37.684Z,2.28
2023-05-12T15:49:05.542Z,2.25
2023-05-12T15:51:34.197Z,2.15
2023-05-12T15:54:03.006Z,2.42
2023-05-12T15:56:31.060Z,2.35
2023-05-12T15:58:59.061Z,1.90
2023-05-12T16:01:27.596Z,2.17
2023-05-12T16:03:55.748Z,2.25
2023-05-12T16:06:24.292Z,1.85
2023-05-12T16:08:53.825Z,1.88
2023-05-12T16:11:21.724Z,1.75
2023-05-12T16:13:51.934Z,1.90
2023-05-12T16:16:20.350Z,2.00
2023-05-12T16:18:51.026Z,1.90
2023-05-12T16:21:20.279Z,2.30
2023-05-12T16:23:48.270Z,1.75
2023-05-12T16:26:16.435Z,1.73
2023-05-12T16:28:44.887Z,1.70
2023-05-12T16:31:18.426Z,2.10
2023-05-12T16:33:46.797Z,1.83
2023-05-12T16:36:15.420Z,1.92
2023-05-12T16:38:44.446Z,2.20
2023-05-12T16:41:12.752Z,2.00
2023-05-12T16:43:40.843Z,2.47
2023-05-12T16:46:09.050Z,2.55
2023-05-12T16:48:37.034Z,2.38
2023-05-12T16:51:08.147Z,1.83
2023-05-12T16:53:37.144Z,2.15
2023-05-12T16:56:05.754Z,2.20
2023-05-12T16:58:34.254Z,1.90
2023-05-12T17:01:03.153Z,2.20
2023-05-12T17:03:31.939Z,2.50
2023-05-12T17:06:03.232Z,2.28
2023-05-12T17:08:31.309Z,2.15
2023-05-12T17:10:59.556Z,2.03
2023-05-12T17:13:27.716Z,2.10
2023-05-12T17:15:56.721Z,2.33
2023-05-12T17:18:26.230Z,1.90
2023-05-12T17:20:54.736Z,2.00
2023-05-12T17:23:25.919Z,2.30
2023-05-12T17:25:54.354Z,2.25
2023-05-12T17:28:22.967Z,2.20
2023-05-12T17:30:51.066Z,2.83
2023-05-12T17:33:19.336Z,2.17
2023-05-12T17:36:00.501Z,2.70
2023-05-12T17:38:35.600Z,2.42
2023-05-12T17:41:04.017Z,2.40
2023-05-12T17:43:32.528Z,2.20
2023-05-12T17:46:00.935Z,2.63
2023-05-12T17:48:33.503Z,2.45
2023-05-12T17:51:03.548Z,2.55
2023-05-12T17:53:32.865Z,2.90
2023-05-12T17:56:01.792Z,2.40
2023-05-12T17:58:29.754Z,2.40
2023-05-12T18:00:58.108Z,2.67
2023-05-12T18:03:26.350Z,3.42
2023-05-12T18:05:57.618Z,3.05
2023-05-12T18:10:53.576Z,4.93
2023-05-12T18:13:21.471Z,4.38
2023-05-12T18:15:50.434Z,5.95
2023-05-12T18:18:18.936Z,4.05
2023-05-12T18:20:47.177Z,3.85
2023-05-12T18:23:15.201Z,2.80
2023-05-12T18:25:43.680Z,3.10
2023-05-12T18:28:11.824Z,2.47
2023-05-12T18:30:40.172Z,2.53
2023-05-12T18:33:08.158Z,2.03
2023-05-12T18:35:36.190Z,2.33
2023-05-12T18:38:04.185Z,2.10
2023-05-12T18:40:32.222Z,2.70
2023-05-12T18:43:00.662Z,2.60
2023-05-12T18:45:28.760Z,1.98
2023-05-12T18:47:56.868Z,3.22
2023-05-12T18:50:25.002Z,2.25
2023-05-12T18:52:52.931Z,2.33
2023-05-12T18:55:21.300Z,3.08
2023-05-12T18:57:50.006Z,1.92
2023-05-12T19:00:18.455Z,2.22
2023-05-12T19:02:49.034Z,2.10
2023-05-12T19:05:17.050Z,2.03
2023-05-12T19:07:45.034Z,1.95
2023-05-12T19:10:12.988Z,2.00
2023-05-12T19:12:41.371Z,2.50
2023-05-12T19:15:10.096Z,2.13
2023-05-12T19:17:37.954Z,2.03
2023-05-12T19:20:06.555Z,1.98
2023-05-12T19:22:35.840Z,2.47
2023-05-12T19:25:04.516Z,2.35
2023-05-12T19:27:32.669Z,2.45
2023-05-12T19:30:02.531Z,2.30
2023-05-12T19:32:34.252Z,2.78
2023-05-12T19:35:05.092Z,2.08
2023-05-12T19:37:34.244Z,2.17
2023-05-12T19:40:03.297Z,2.70
2023-05-12T19:42:31.505Z,2.53
2023-05-12T19:45:00.863Z,2.13
2023-05-12T19:47:29.424Z,2.15
2023-05-12T19:49:57.733Z,2.70
2023-05-12T19:52:26.046Z,2.58
2023-05-12T19:54:54.091Z,3.67
2023-05-12T19:57:22.616Z,2.78
2023-05-12T19:59:50.515Z,2.30
2023-05-12T20:02:21.080Z,2.33
2023-05-12T20:04:54.813Z,2.13
2023-05-12T20:07:23.254Z,1.90
2023-05-12T20:09:51.500Z,2.20
2023-05-12T20:12:19.666Z,2.03
2023-05-12T20:14:49.893Z,2.22
2023-05-12T20:17:18.453Z,2.30
2023-05-12T20:19:46.627Z,2.00
2023-05-12T20:22:14.624Z,2.70
2023-05-12T20:24:42.596Z,2.00
2023-05-12T20:27:10.933Z,2.95
2023-05-12T20:29:39.084Z,2.30
2023-05-12T20:32:07.305Z,1.98
2023-05-12T20:34:38.429Z,2.08
2023-05-12T20:37:06.554Z,2.70
2023-05-12T20:39:34.564Z,2.38
2023-05-12T20:42:06.970Z,1.75
2023-05-12T20:44:34.903Z,2.58
2023-05-12T20:47:03.082Z,2.17
2023-05-12T20:49:31.169Z,2.45
2023-05-12T20:51:59.194Z,2.00
2023-05-12T20:54:27.197Z,2.53
2023-05-12T20:56:55.170Z,2.10
2023-05-12T20:59:28.273Z,2.40
2023-05-12T21:01:56.529Z,2.10
2023-05-12T21:04:24.696Z,2.35
2023-05-12T21:06:55.789Z,2.10
2023-05-12T21:09:23.867Z,2.08
2023-05-12T21:11:51.790Z,2.30
2023-05-12T21:14:20.065Z,2.20
2023-05-12T21:16:49.043Z,1.73
2023-05-12T21:19:17.083Z,1.90
2023-05-12T21:21:45.165Z,1.92
2023-05-12T21:24:13.295Z,2.17
2023-05-12T21:26:43.230Z,3.20
2023-05-12T21:29:11.395Z,2.13
2023-05-12T21:31:39.470Z,2.20
2023-05-12T21:34:07.465Z,2.42
2023-05-12T21:36:35.473Z,2.65
2023-05-12T21:39:06.676Z,2.00
2023-05-12T21:41:34.660Z,2.00
2023-05-12T21:44:05.714Z,1.98
2023-05-12T21:46:36.760Z,2.35
2023-05-12T21:49:04.931Z,1.98
2023-05-12T21:51:33.479Z,2.42
2023-05-12T21:54:01.415Z,2.30
2023-05-12T21:56:29.354Z,2.33
2023-05-12T21:58:57.381Z,2.40
2023-05-12T22:01:28.635Z,2.08
2023-05-12T22:04:01.129Z,2.60
2023-05-12T22:06:29.456Z,2.10
2023-05-12T22:08:57.529Z,2.33
2023-05-12T22:11:25.590Z,2.83
2023-05-12T22:13:53.481Z,2.50
2023-05-12T22:16:25.841Z,2.53
2023-05-12T22:19:03.180Z,1.95
2023-05-12T22:21:31.609Z,2.25
2023-05-12T22:23:59.784Z,2.67
2023-05-12T22:26:27.727Z,2.83
2023-05-12T22:28:55.942Z,2.33
2023-05-12T22:31:24.150Z,1.92
2023-05-12T22:33:52.402Z,2.08
2023-05-12T22:36:20.392Z,2.45
2023-05-12T22:38:48.576Z,2.58
2023-05-12T22:41:18.978Z,2.20
2023-05-12T22:43:47.379Z,2.15
2023-05-12T22:46:15.874Z,2.47
2023-05-12T22:48:44.207Z,2.55
2023-05-12T22:51:12.285Z,2.50
2023-05-12T22:53:43.011Z,2.33
2023-05-12T22:56:10.952Z,2.00
2023-05-12T22:58:42.225Z,2.10
2023-05-12T23:01:10.638Z,2.72
2023-05-12T23:03:38.438Z,2.30
2023-05-12T23:06:06.729Z,2.38
2023-05-12T23:08:35.473Z,2.20
2023-05-12T23:11:06.351Z,2.40
2023-05-12T23:13:34.266Z,2.08
2023-05-12T23:16:16.650Z,2.65
2023-05-12T23:18:44.963Z,2.38
2023-05-12T23:21:13.090Z,2.35
2023-05-12T23:23:41.000Z,2.53
2023-05-12T23:26:15.852Z,2.35
2023-05-12T23:28:43.882Z,2.42
2023-05-12T23:31:14.499Z,2.80
2023-05-12T23:33:42.769Z,2.10
2023-05-12T23:36:11.465Z,2.53
2023-05-12T23:38:39.685Z,2.50
2023-05-12T23:41:07.694Z,2.63
2023-05-12T23:43:35.606Z,2.67
2023-05-12T23:46:03.765Z,2.53
2023-05-12T23:48:33.293Z,2.28
2023-05-12T23:51:01.350Z,2.47
2023-05-12T23:53:29.425Z,2.88
2023-05-12T23:55:57.395Z,2.30
2023-05-12T23:58:25.343Z,2.60
